Terminal Aerodrome Forecast
Issued by NWS

Home | Current Version | Previous Version | Text Only | Print | Product List | Glossary On
Versions: 1 2 3 4 5 6 7 8 9 10 11 12 13 14 15 16 17
097
FTUS43 KDLH 110531
TAFBRD
TAF
KBRD 110531Z 1106/1206 08004KT 6SM -SN SCT020 BKN050 OVC100
      TEMPO 1106/1109 5SM -SN SCT020 OVC040
     FM110900 08007KT 2SM -SN BR SCT008 OVC012
     FM111100 07008KT 1SM -SN OVC008
     FM111800 07007KT 3SM -SN OVC013
     FM112100 02005KT 6SM -SN OVC010
     FM120200 31004KT P6SM -SN OVC015=

USA.gov is the U.S. government's official web portal to all federal, state and local government web resources and services.